Time,TemperatureF,DewpointF,PressureIn,WindDirection,WindDirectionDegrees,WindSpeedMPH,WindSpeedGustMPH,Humidity,HourlyPrecipIn,Conditions,Clouds,dailyrainin,SoftwareType,DateUTC
2013-08-22 00:22:00,72.0,65.0,30.01,SSE,167,0.0,1.0,78,0.00,,,0.00,,2013-08-22 05:22:00,
2013-08-22 00:52:00,69.0,65.0,30.03,ESE,104,0.0,2.0,87,0.00,,,0.00,,2013-08-22 05:52:00,
2013-08-22 01:22:00,70.0,66.0,30.04,South,171,0.0,4.0,86,0.00,,,0.00,,2013-08-22 06:22:00,
2013-08-22 01:52:00,70.0,66.0,30.03,SSE,152,2.0,8.0,87,0.00,,,0.00,,2013-08-22 06:52:00,
2013-08-22 02:22:00,69.0,65.0,30.02,SSE,150,2.0,7.0,88,0.00,,,0.00,,2013-08-22 07:22:00,
2013-08-22 02:52:00,69.0,65.0,30.01,SW,233,0.0,0.0,88,0.00,,,0.00,,2013-08-22 07:52:00,
2013-08-22 03:22:00,70.0,66.0,30.01,WSW,245,0.0,3.0,86,0.00,,,0.00,,2013-08-22 08:22:00,
2013-08-22 03:53:00,69.0,65.0,30.01,WSW,248,0.0,3.0,87,0.00,,,0.00,,2013-08-22 08:53:00,
2013-08-22 04:22:00,69.0,65.0,30.01,SE,125,0.0,4.0,87,0.00,,,0.00,,2013-08-22 09:22:00,
2013-08-22 04:54:00,69.0,65.0,30.01,SW,225,0.0,4.0,86,0.00,,,0.00,,2013-08-22 09:54:00,
2013-08-22 05:23:00,69.0,65.0,30.01,NNW,342,0.0,0.0,88,0.00,,,0.00,,2013-08-22 10:23:00,
2013-08-22 05:30:00,69.0,66.0,30.00,WSW,245,0.0,0.0,89,0.00,,,0.00,,2013-08-22 10:30:00,
2013-08-22 07:52:00,72.0,68.0,30.01,WSW,253,0.0,1.0,87,0.00,,,0.00,,2013-08-22 12:52:00,
2013-08-22 08:22:00,74.0,69.0,30.01,West,273,0.0,0.0,84,0.00,,,0.00,,2013-08-22 13:22:00,
2013-08-22 08:52:00,74.0,69.0,30.01,SW,235,0.0,0.0,84,0.00,,,0.00,,2013-08-22 13:52:00,
2013-08-22 09:22:00,74.0,69.0,30.02,WSW,253,0.0,0.0,85,0.00,,,0.00,,2013-08-22 14:22:00,
2013-08-22 09:52:00,73.0,69.0,30.03,NW,311,0.0,0.0,86,0.00,,,0.00,,2013-08-22 14:52:00,
2013-08-22 10:22:00,73.0,69.0,30.04,NNW,331,0.0,0.0,88,0.00,,,0.00,,2013-08-22 15:22:00,
2013-08-22 10:55:00,73.0,70.0,30.07,WSW,245,0.0,0.0,90,0.00,,,0.00,,2013-08-22 15:55:00,
2013-08-22 11:24:00,69.0,68.0,30.12,NW,305,5.0,10.0,95,1.00,,,1.00,,2013-08-22 16:24:00,
2013-08-22 11:54:00,67.0,66.0,30.14,WNW,302,0.0,9.0,97,1.75,,,1.76,,2013-08-22 16:54:00,
2013-08-22 12:24:00,66.0,65.0,30.11,NW,319,1.0,4.0,97,0.79,,,1.81,,2013-08-22 17:24:00,
2013-08-22 12:53:00,66.0,65.0,30.10,WNW,299,0.0,0.0,97,0.11,,,1.87,,2013-08-22 17:53:00,
2013-08-22 13:22:00,66.0,65.0,30.08,NW,307,0.0,0.0,97,0.11,,,1.92,,2013-08-22 18:22:00,
2013-08-22 13:52:00,66.0,65.0,30.07,NNW,339,0.0,0.0,97,0.05,,,1.93,,2013-08-22 18:52:00,
2013-08-22 14:22:00,68.0,67.0,30.06,NW,312,0.0,3.0,97,0.01,,,1.93,,2013-08-22 19:22:00,
2013-08-22 14:53:00,70.0,68.0,30.06,SSE,150,0.0,0.0,94,0.00,,,1.93,,2013-08-22 19:53:00,
2013-08-22 15:23:00,71.0,69.0,30.05,East,79,0.0,0.0,92,0.00,,,1.93,,2013-08-22 20:23:00,
2013-08-22 15:52:00,71.0,69.0,30.04,ENE,62,0.0,0.0,92,0.00,,,1.93,,2013-08-22 20:52:00,
2013-08-22 16:22:00,72.0,69.0,30.03,ENE,76,0.0,2.0,90,0.00,,,1.93,,2013-08-22 21:22:00,
2013-08-22 16:54:00,73.0,69.0,30.02,NE,49,2.0,7.0,88,0.00,,,1.93,,2013-08-22 21:54:00,
2013-08-22 17:24:00,74.0,70.0,30.03,East,84,0.0,4.0,86,0.00,,,1.93,,2013-08-22 22:24:00,
2013-08-22 17:53:00,73.0,69.0,30.05,NW,316,0.0,4.0,87,0.00,,,1.93,,2013-08-22 22:53:00,
2013-08-22 18:11:00,73.0,69.0,30.06,NW,314,0.0,2.0,87,0.00,,,1.93,,2013-08-22 23:11:00,
2013-08-22 18:22:00,73.0,69.0,30.06,North,6,1.0,4.0,86,0.00,,,1.93,,2013-08-22 23:22:00,
2013-08-22 18:53:00,71.0,67.0,30.07,East,79,0.0,4.0,87,0.00,,,1.93,,2013-08-22 23:53:00,
2013-08-22 19:23:00,71.0,67.0,30.07,ENE,73,0.0,0.0,88,0.00,,,1.93,,2013-08-23 00:23:00,
2013-08-22 19:42:00,71.0,68.0,30.08,ENE,74,0.0,0.0,89,0.00,,,1.93,,2013-08-23 00:42:00,
2013-08-22 19:52:00,69.0,66.0,30.08,ENE,74,0.0,0.0,91,0.00,,,1.93,,2013-08-23 00:52:00,
2013-08-22 20:11:00,69.0,67.0,30.09,ENE,74,0.0,0.0,92,0.00,,,1.93,,2013-08-23 01:11:00,
2013-08-22 20:21:00,67.0,65.0,30.09,ENE,74,0.0,0.0,94,0.00,,,1.93,,2013-08-23 01:21:00,
2013-08-22 20:52:00,66.0,65.0,30.10,ENE,73,0.0,0.0,96,0.00,,,1.93,,2013-08-23 01:52:00,
2013-08-22 21:22:00,65.0,64.0,30.10,ENE,74,0.0,0.0,97,0.00,,,1.93,,2013-08-23 02:22:00,
2013-08-22 21:52:00,63.0,62.0,30.11,ENE,74,0.0,0.0,96,0.00,,,1.93,,2013-08-23 02:52:00,
2013-08-22 22:12:00,62.0,61.0,30.11,ENE,73,0.0,0.0,96,0.00,,,1.93,,2013-08-23 03:12:00,
2013-08-22 22:22:00,61.0,60.0,30.11,ENE,74,0.0,0.0,95,0.00,,,1.93,,2013-08-23 03:22:00,
2013-08-22 22:55:00,60.0,58.0,30.12,ENE,73,0.0,0.0,94,0.00,,,1.93,,2013-08-23 03:55:00,
2013-08-22 23:24:00,59.0,58.0,30.12,ENE,74,0.0,0.0,95,0.00,,,1.93,,2013-08-23 04:24:00,
2013-08-22 23:54:00,58.0,57.0,30.13,ENE,73,0.0,0.0,96,0.00,,,1.93,,2013-08-23 04:54:00,